createdAt,value
2018-04-15T00:01:53.552Z,15.70
2018-04-15T00:04:21.123Z,13.43
2018-04-15T00:06:48.729Z,14.67
2018-04-15T00:09:16.320Z,15.00
2018-04-15T00:11:43.849Z,14.47
2018-04-15T00:14:12.160Z,14.67
2018-04-15T00:16:39.683Z,14.00
2018-04-15T00:19:07.713Z,14.10
2018-04-15T00:21:35.249Z,14.10
2018-04-15T00:24:03.209Z,15.50
2018-04-15T00:26:30.761Z,14.80
2018-04-15T00:28:58.594Z,15.47
2018-04-15T00:31:26.185Z,13.53
2018-04-15T00:33:53.754Z,14.97
2018-04-15T00:36:21.307Z,13.97
2018-04-15T00:38:48.861Z,15.23
2018-04-15T00:41:16.424Z,15.97
2018-04-15T00:43:43.976Z,15.83
2018-04-15T00:46:11.545Z,15.13
2018-04-15T00:48:39.091Z,16.30
2018-04-15T00:51:06.653Z,15.43
2018-04-15T00:53:45.843Z,16.43
2018-04-15T00:56:13.718Z,16.47
2018-04-15T00:58:41.267Z,15.67
2018-04-15T01:01:09.278Z,17.93
2018-04-15T01:03:36.868Z,16.10
2018-04-15T01:06:04.441Z,17.50
2018-04-15T01:08:32.004Z,18.63
2018-04-15T01:10:59.547Z,18.50
2018-04-15T01:13:27.115Z,18.73
2018-04-15T01:15:54.651Z,18.17
2018-04-15T01:18:22.228Z,18.87
2018-04-15T01:20:49.794Z,19.33
2018-04-15T01:23:17.347Z,18.50
2018-04-15T01:25:44.899Z,18.93
2018-04-15T01:28:12.465Z,18.87
2018-04-15T01:30:39.987Z,19.63
2018-04-15T01:33:07.575Z,18.50
2018-04-15T01:35:35.122Z,19.60
2018-04-15T01:38:02.716Z,19.97
2018-04-15T01:40:30.260Z,20.23
2018-04-15T01:42:57.835Z,21.00
2018-04-15T01:45:25.364Z,20.73
2018-04-15T01:47:52.996Z,19.70
2018-04-15T01:50:20.531Z,19.10
2018-04-15T01:52:48.647Z,20.37
2018-04-15T01:55:16.209Z,20.13
2018-04-15T01:57:43.773Z,19.43
2018-04-15T02:00:11.325Z,19.10
2018-04-15T02:02:39.472Z,19.00
2018-04-15T02:05:07.009Z,21.20
2018-04-15T02:07:34.910Z,19.37
2018-04-15T02:10:02.510Z,18.73
2018-04-15T02:12:30.358Z,20.20
2018-04-15T02:14:57.933Z,17.67
2018-04-15T02:17:25.515Z,19.43
2018-04-15T02:19:53.104Z,17.90
2018-04-15T02:22:20.677Z,17.73
2018-04-15T02:24:48.235Z,18.90
2018-04-15T02:27:15.791Z,16.40
2018-04-15T02:29:43.381Z,16.63
2018-04-15T02:32:10.962Z,17.27
2018-04-15T02:34:38.562Z,17.17
2018-04-15T02:37:06.105Z,17.03
2018-04-15T02:39:33.688Z,16.47
2018-04-15T02:42:01.226Z,15.60
2018-04-15T02:44:28.800Z,15.40
2018-04-15T02:46:56.376Z,16.93
2018-04-15T02:49:24.491Z,16.70
2018-04-15T02:51:52.049Z,17.60
2018-04-15T02:54:19.652Z,18.73
2018-04-15T02:56:47.203Z,17.97
2018-04-15T02:59:15.311Z,18.73
2018-04-15T03:01:42.843Z,18.67
2018-04-15T03:04:10.906Z,18.30
2018-04-15T03:06:38.534Z,19.30
2018-04-15T03:09:06.319Z,21.47
2018-04-15T03:11:34.067Z,20.20
2018-04-15T03:14:01.645Z,20.97
2018-04-15T03:16:29.231Z,23.60
2018-04-15T03:18:56.777Z,23.40
2018-04-15T03:21:24.449Z,23.97
2018-04-15T03:23:52.315Z,26.03
2018-04-15T03:26:20.341Z,25.13
2018-04-15T03:28:47.882Z,28.27
2018-04-15T03:31:15.959Z,28.67
2018-04-15T03:33:43.518Z,27.93
2018-04-15T03:36:11.444Z,27.70
2018-04-15T03:38:39.135Z,26.43
2018-04-15T03:41:06.940Z,24.87
2018-04-15T03:43:34.547Z,25.07
2018-04-15T03:46:02.094Z,26.50
2018-04-15T03:48:29.684Z,27.57
2018-04-15T03:50:57.237Z,25.33
2018-04-15T03:53:24.868Z,23.10
2018-04-15T03:55:52.398Z,25.57
2018-04-15T03:58:19.978Z,21.90
2018-04-15T04:00:47.517Z,23.13
2018-04-15T04:03:15.093Z,21.17
2018-04-15T04:05:42.657Z,19.80
2018-04-15T04:08:10.267Z,18.43
2018-04-15T04:10:37.826Z,19.73
2018-04-15T04:13:05.468Z,20.40
2018-04-15T04:15:33.001Z,17.97
2018-04-15T04:18:12.967Z,16.93
2018-04-15T04:20:52.518Z,16.80
2018-04-15T04:23:31.988Z,15.03
2018-04-15T04:26:04.479Z,14.87
2018-04-15T04:28:32.444Z,14.37
2018-04-15T04:31:00.024Z,14.87
2018-04-15T04:33:27.728Z,15.07
2018-04-15T04:35:55.309Z,14.00
2018-04-15T04:38:22.845Z,13.40
2018-04-15T04:40:50.415Z,13.40
2018-04-15T04:43:17.959Z,13.70
2018-04-15T04:45:45.529Z,13.50
2018-04-15T04:48:13.064Z,13.70
2018-04-15T04:50:40.684Z,14.70
2018-04-15T04:53:08.222Z,17.03
2018-04-15T04:55:35.800Z,16.53
2018-04-15T04:58:03.387Z,19.27
2018-04-15T05:00:30.975Z,19.87
2018-04-15T05:02:58.569Z,18.73
2018-04-15T05:05:26.156Z,17.47
2018-04-15T05:07:53.684Z,17.40
2018-04-15T05:10:21.261Z,16.13
2018-04-15T05:12:48.853Z,16.23
2018-04-15T05:15:16.408Z,16.83
2018-04-15T05:17:43.959Z,16.60
2018-04-15T05:20:11.569Z,16.77
2018-04-15T05:22:39.115Z,16.83
2018-04-15T05:25:06.669Z,17.30
2018-04-15T05:27:34.251Z,18.07
2018-04-15T05:30:02.601Z,16.67
2018-04-15T05:32:30.146Z,16.33
2018-04-15T05:34:58.143Z,16.47
2018-04-15T05:37:25.712Z,15.80
2018-04-15T05:39:53.607Z,15.80
2018-04-15T05:42:21.160Z,15.57
2018-04-15T05:44:49.080Z,15.40
2018-04-15T05:47:16.653Z,15.83
2018-04-15T05:49:44.198Z,15.47
2018-04-15T05:52:11.783Z,15.93
2018-04-15T05:54:39.324Z,15.33
2018-04-15T05:57:06.895Z,16.60
2018-04-15T05:59:34.522Z,15.27
2018-04-15T06:02:02.099Z,16.83
2018-04-15T06:04:29.664Z,17.93
2018-04-15T06:06:57.280Z,16.87
2018-04-15T06:09:24.849Z,18.33
2018-04-15T06:11:52.520Z,18.03
2018-04-15T06:14:20.111Z,18.47
2018-04-15T06:16:48.310Z,19.87
2018-04-15T06:19:15.828Z,20.50
2018-04-15T06:21:43.399Z,19.47
2018-04-15T06:24:10.958Z,19.67
2018-04-15T06:26:38.530Z,21.37
2018-04-15T06:29:06.073Z,18.73
2018-04-15T06:31:34.242Z,19.83
2018-04-15T06:34:01.802Z,18.80
2018-04-15T06:36:29.982Z,19.17
2018-04-15T06:38:57.522Z,21.47
2018-04-15T06:41:25.068Z,20.23
2018-04-15T06:43:52.627Z,20.43
2018-04-15T06:46:20.179Z,19.27
2018-04-15T06:48:47.774Z,18.53
2018-04-15T06:51:15.300Z,19.83
2018-04-15T06:53:42.892Z,20.53
2018-04-15T06:56:10.481Z,17.80
2018-04-15T06:58:38.047Z,18.70
2018-04-15T07:01:05.597Z,17.03
2018-04-15T07:03:33.182Z,18.27
2018-04-15T07:06:00.724Z,17.67
2018-04-15T07:08:28.306Z,18.33
2018-04-15T07:10:55.864Z,20.43
2018-04-15T07:13:23.435Z,18.70
2018-04-15T07:15:50.978Z,19.57
2018-04-15T07:18:18.544Z,20.67
2018-04-15T07:20:46.102Z,20.70
2018-04-15T07:23:13.661Z,21.67
2018-04-15T07:25:41.232Z,20.47
2018-04-15T07:28:08.822Z,18.00
2018-04-15T07:30:36.392Z,18.40
2018-04-15T07:33:03.954Z,18.27
2018-04-15T07:35:31.510Z,17.27
2018-04-15T07:37:59.070Z,16.90
2018-04-15T07:40:26.637Z,18.53
2018-04-15T07:42:54.249Z,19.20
2018-04-15T07:45:21.830Z,17.83
2018-04-15T07:47:50.026Z,15.47
2018-04-15T07:50:17.560Z,13.10
2018-04-15T07:52:45.766Z,20.63
2018-04-15T07:55:13.405Z,14.70
2018-04-15T07:57:41.604Z,12.63
2018-04-15T08:00:09.235Z,11.67
2018-04-15T08:02:36.782Z,11.33
2018-04-15T08:05:04.370Z,12.27
2018-04-15T08:07:31.909Z,10.20
2018-04-15T08:10:19.484Z,9.03
2018-04-15T08:12:47.022Z,9.33
2018-04-15T08:15:14.613Z,8.67
2018-04-15T08:17:42.177Z,9.00
2018-04-15T08:20:09.820Z,9.20
2018-04-15T08:22:37.442Z,7.83
2018-04-15T08:25:05.006Z,6.77
2018-04-15T08:27:32.593Z,8.00
2018-04-15T08:30:00.199Z,9.57
2018-04-15T08:32:27.760Z,10.00
2018-04-15T08:34:55.358Z,8.80
2018-04-15T08:37:23.023Z,9.43
2018-04-15T08:39:51.278Z,9.00
2018-04-15T08:42:18.815Z,9.17
2018-04-15T08:44:46.967Z,8.83
2018-04-15T08:47:14.518Z,8.00
2018-04-15T08:49:42.775Z,8.50
2018-04-15T08:52:10.443Z,6.90
2018-04-15T08:54:38.075Z,7.47
2018-04-15T08:57:05.657Z,7.47
2018-04-15T08:59:33.211Z,6.30
2018-04-15T09:02:01.554Z,5.70
2018-04-15T09:04:29.114Z,6.40
2018-04-15T09:06:57.098Z,6.83
2018-04-15T09:09:24.635Z,6.50
2018-04-15T09:11:52.981Z,5.00
2018-04-15T09:14:20.541Z,3.87
2018-04-15T09:16:48.131Z,3.83
2018-04-15T09:19:19.248Z,4.67
2018-04-15T09:21:46.859Z,4.30
2018-04-15T09:24:14.414Z,4.03
2018-04-15T09:26:42.912Z,3.60
2018-04-15T09:29:30.451Z,3.47
2018-04-15T09:31:58.383Z,2.93
2018-04-15T09:34:25.944Z,3.30
2018-04-15T09:36:54.543Z,3.10
2018-04-15T09:39:22.993Z,3.93
2018-04-15T09:41:50.528Z,3.40
2018-04-15T09:44:18.523Z,3.43
2018-04-15T09:46:46.109Z,3.47
2018-04-15T09:49:14.439Z,3.20
2018-04-15T09:51:54.440Z,3.07
2018-04-15T09:54:46.548Z,3.43
2018-04-15T10:10:18.296Z,3.37
2018-04-15T10:12:52.661Z,3.00
2018-04-15T10:15:37.464Z,3.43
2018-04-15T10:27:50.126Z,2.93
2018-04-15T10:30:18.664Z,2.63
2018-04-15T10:32:46.222Z,3.00
2018-04-15T10:35:14.587Z,2.70
2018-04-15T10:37:42.526Z,2.73
2018-04-15T10:40:10.190Z,2.20
2018-04-15T10:42:38.567Z,2.43
2018-04-15T10:45:06.733Z,2.70
2018-04-15T10:47:34.875Z,2.57
2018-04-15T10:50:03.301Z,2.50
2018-04-15T10:52:30.835Z,2.60
2018-04-15T10:54:58.838Z,2.30
2018-04-15T10:57:26.425Z,2.90
2018-04-15T10:59:54.605Z,2.20
2018-04-15T11:02:22.295Z,2.00
2018-04-15T11:04:49.829Z,1.77
2018-04-15T11:07:18.172Z,1.80
2018-04-15T11:09:45.814Z,2.27
2018-04-15T11:12:14.200Z,2.07
2018-04-15T11:14:41.899Z,2.37
2018-04-15T11:17:09.438Z,2.30
2018-04-15T11:19:37.104Z,1.93
2018-04-15T11:22:04.654Z,2.47
2018-04-15T11:24:32.928Z,2.17
2018-04-15T11:27:00.495Z,2.00
2018-04-15T11:29:28.472Z,2.30
2018-04-15T11:31:55.996Z,1.67
2018-04-15T11:34:24.630Z,1.60
2018-04-15T11:36:52.998Z,1.57
2018-04-15T11:39:20.544Z,2.30
2018-04-15T11:41:48.857Z,2.63
2018-04-15T11:44:16.470Z,1.70
2018-04-15T11:46:44.300Z,1.90
2018-04-15T11:49:11.950Z,1.83
2018-04-15T11:51:39.568Z,1.77
2018-04-15T11:54:07.813Z,1.63
2018-04-15T11:56:35.346Z,2.03
2018-04-15T11:59:03.759Z,1.57
2018-04-15T12:01:31.336Z,1.50
2018-04-15T12:03:59.123Z,2.40
2018-04-15T12:06:26.748Z,1.77
2018-04-15T12:08:54.493Z,1.63
2018-04-15T12:11:22.143Z,1.60
2018-04-15T12:13:49.702Z,1.70
2018-04-15T12:16:18.117Z,1.40
2018-04-15T12:18:45.676Z,1.30
2018-04-15T12:21:13.786Z,1.20
2018-04-15T12:23:41.613Z,1.43
2018-04-15T12:26:09.755Z,2.00
2018-04-15T12:28:37.305Z,1.77
2018-04-15T12:31:05.841Z,1.63
2018-04-15T12:33:33.442Z,1.10
2018-04-15T12:36:00.984Z,1.60
2018-04-15T12:38:28.512Z,1.30
2018-04-15T12:40:56.077Z,1.23
2018-04-15T12:43:24.458Z,1.40
2018-04-15T12:45:51.988Z,1.10
2018-04-15T12:48:20.049Z,0.90
2018-04-15T12:50:47.600Z,1.20
2018-04-15T12:53:15.816Z,1.17
2018-04-15T12:55:43.464Z,1.20
2018-04-15T12:58:11.036Z,1.40
2018-04-15T13:00:39.521Z,1.30
2018-04-15T13:03:07.052Z,1.10
2018-04-15T13:05:35.405Z,1.30
2018-04-15T13:08:02.987Z,1.30
2018-04-15T13:10:30.569Z,1.10
2018-04-15T13:12:58.234Z,1.10
2018-04-15T13:15:25.787Z,1.40
2018-04-15T13:17:53.390Z,1.13
2018-04-15T13:20:20.920Z,0.97
2018-04-15T13:22:48.563Z,1.50
2018-04-15T13:25:16.199Z,1.03
2018-04-15T13:27:44.321Z,1.27
2018-04-15T13:30:11.953Z,1.30
2018-04-15T13:32:40.047Z,1.40
2018-04-15T13:35:07.619Z,1.90
2018-04-15T13:37:35.764Z,1.30
2018-04-15T13:40:03.372Z,1.63
2018-04-15T13:42:44.717Z,1.57
2018-04-15T13:45:12.284Z,1.90
2018-04-15T13:47:40.555Z,1.10
2018-04-15T13:50:08.112Z,1.23
2018-04-15T13:52:35.882Z,1.10
2018-04-15T13:55:03.413Z,0.83
2018-04-15T13:57:30.934Z,2.10
2018-04-15T13:59:58.623Z,1.47
2018-04-15T14:02:26.273Z,0.90
2018-04-15T14:04:53.924Z,1.30
2018-04-15T14:07:21.459Z,1.07
2018-04-15T14:09:49.813Z,1.47
2018-04-15T14:12:17.370Z,1.40
2018-04-15T14:14:45.419Z,1.90
2018-04-15T14:17:13.021Z,1.63
2018-04-15T14:19:41.276Z,1.33
2018-04-15T14:22:08.979Z,1.13
2018-04-15T14:24:36.511Z,1.80
2018-04-15T14:27:04.118Z,1.70
2018-04-15T14:29:31.677Z,1.63
2018-04-15T14:31:59.999Z,1.20
2018-04-15T14:34:27.593Z,1.53
2018-04-15T14:36:55.722Z,1.50
2018-04-15T14:39:23.306Z,1.40
2018-04-15T14:41:51.496Z,1.50
2018-04-15T14:44:19.170Z,1.23
2018-04-15T14:46:46.716Z,1.40
2018-04-15T14:49:14.310Z,2.43
2018-04-15T14:51:42.107Z,1.70
2018-04-15T14:54:10.383Z,1.10
2018-04-15T14:56:37.954Z,1.43
2018-04-15T14:59:05.856Z,1.20
2018-04-15T15:01:38.281Z,1.37
2018-04-15T15:04:06.234Z,1.30
2018-04-15T15:06:33.886Z,1.43
2018-04-15T15:09:01.692Z,5.60
2018-04-15T15:11:29.322Z,3.27
2018-04-15T15:13:56.882Z,1.70
2018-04-15T15:16:24.507Z,1.40
2018-04-15T15:18:52.102Z,1.90
2018-04-15T15:21:20.337Z,1.30
2018-04-15T15:23:47.923Z,1.60
2018-04-15T15:26:16.053Z,1.50
2018-04-15T15:28:43.732Z,3.10
2018-04-15T15:31:11.958Z,1.50
2018-04-15T15:33:40.347Z,1.20
2018-04-15T15:36:08.304Z,1.50
2018-04-15T15:38:36.230Z,9.07
2018-04-15T15:41:03.802Z,5.73
2018-04-15T15:43:32.091Z,1.53
2018-04-15T15:46:00.374Z,1.47
2018-04-15T15:48:27.962Z,1.70
2018-04-15T15:50:56.058Z,1.10
2018-04-15T15:53:23.594Z,2.43
2018-04-15T15:55:51.523Z,3.20
2018-04-15T15:58:19.105Z,1.50
2018-04-15T16:00:47.019Z,1.63
2018-04-15T16:03:14.661Z,3.33
2018-04-15T16:05:42.204Z,3.13
2018-04-15T16:08:09.784Z,1.57
2018-04-15T16:10:37.335Z,1.60
2018-04-15T16:13:04.926Z,1.60
2018-04-15T16:15:32.471Z,2.50
2018-04-15T16:18:00.924Z,1.53
2018-04-15T16:20:28.560Z,2.10
2018-04-15T16:22:56.676Z,1.73
2018-04-15T16:25:24.316Z,3.93
2018-04-15T16:27:52.371Z,4.87
2018-04-15T16:30:19.976Z,2.40
2018-04-15T16:32:47.580Z,1.43
2018-04-15T16:35:16.052Z,1.63
2018-04-15T16:37:43.588Z,1.40
2018-04-15T16:40:11.499Z,1.50
2018-04-15T16:42:39.722Z,1.30
2018-04-15T16:45:08.109Z,1.40
2018-04-15T16:47:36.657Z,1.50
2018-04-15T16:50:04.867Z,1.90
2018-04-15T16:52:33.304Z,2.97
2018-04-15T16:55:02.133Z,1.60
2018-04-15T16:57:30.385Z,1.70
2018-04-15T16:59:58.639Z,1.87
2018-04-15T17:02:27.345Z,1.77
2018-04-15T17:04:56.307Z,3.87
2018-04-15T17:07:24.534Z,2.10
2018-04-15T17:09:53.429Z,2.37
2018-04-15T17:12:22.011Z,3.60
2018-04-15T17:14:51.207Z,5.53
2018-04-15T17:17:19.503Z,2.50
2018-04-15T17:19:47.826Z,2.40
2018-04-15T17:22:16.542Z,2.27
2018-04-15T17:24:44.744Z,1.93
2018-04-15T17:27:13.716Z,2.40
2018-04-15T17:29:42.222Z,3.00
2018-04-15T17:32:11.736Z,3.80
2018-04-15T17:34:39.870Z,2.23
2018-04-15T17:37:08.216Z,2.43
2018-04-15T17:39:36.778Z,2.40
2018-04-15T17:42:04.970Z,2.47
2018-04-15T17:44:33.248Z,4.80
2018-04-15T17:47:02.011Z,2.87
2018-04-15T17:49:30.188Z,2.03
2018-04-15T17:51:58.438Z,2.63
2018-04-15T17:54:27.115Z,2.20
2018-04-15T17:56:55.305Z,3.10
2018-04-15T17:59:23.555Z,2.90
2018-04-15T18:01:52.338Z,2.50
2018-04-15T18:04:20.554Z,5.43
2018-04-15T18:06:49.342Z,2.70
2018-04-15T18:09:18.011Z,2.47
2018-04-15T18:11:46.302Z,14.00
2018-04-15T18:14:14.519Z,5.63
2018-04-15T18:16:43.075Z,2.80
2018-04-15T18:19:11.301Z,2.37
2018-04-15T18:21:39.698Z,2.60
2018-04-15T18:24:08.479Z,2.60
2018-04-15T18:26:36.724Z,2.53
2018-04-15T18:29:04.935Z,3.67
2018-04-15T18:31:33.641Z,5.23
2018-04-15T18:34:01.856Z,5.87
2018-04-15T18:36:30.055Z,3.60
2018-04-15T18:38:58.863Z,5.30
2018-04-15T18:41:27.157Z,4.47
2018-04-15T18:43:55.335Z,2.67
2018-04-15T18:46:24.175Z,5.30
2018-04-15T18:48:52.881Z,3.43
2018-04-15T18:51:21.063Z,2.70
2018-04-15T18:53:49.263Z,2.60
2018-04-15T18:56:18.013Z,3.80
2018-04-15T18:58:46.190Z,3.83
2018-04-15T19:01:14.426Z,3.77
2018-04-15T19:03:43.187Z,3.33
2018-04-15T19:06:11.375Z,3.30
2018-04-15T19:08:40.168Z,5.17
2018-04-15T19:11:08.699Z,3.93
2018-04-15T19:13:36.911Z,4.77
2018-04-15T19:16:05.322Z,4.37
2018-04-15T19:18:33.761Z,4.47
2018-04-15T19:21:01.965Z,4.57
2018-04-15T19:23:30.258Z,4.23
2018-04-15T19:25:59.219Z,4.73
2018-04-15T19:28:27.673Z,5.10
2018-04-15T19:30:56.000Z,5.07
2018-04-15T19:33:24.700Z,4.47
2018-04-15T19:35:53.453Z,4.53
2018-04-15T19:38:21.688Z,5.40
2018-04-15T19:40:50.517Z,4.80
2018-04-15T19:43:19.093Z,4.73
2018-04-15T19:45:47.365Z,4.17
2018-04-15T19:48:15.650Z,4.40
2018-04-15T19:50:44.291Z,5.23
2018-04-15T19:53:12.570Z,4.93
2018-04-15T19:55:40.778Z,4.13
2018-04-15T19:58:09.610Z,4.33
2018-04-15T20:00:37.849Z,4.13
2018-04-15T20:03:06.021Z,4.23
2018-04-15T20:05:34.737Z,4.23
2018-04-15T20:08:03.060Z,4.30
2018-04-15T20:10:31.253Z,4.47
2018-04-15T20:12:59.862Z,3.70
2018-04-15T20:15:28.096Z,3.47
2018-04-15T20:17:56.311Z,4.00
2018-04-15T20:20:25.030Z,3.30
2018-04-15T20:22:53.254Z,3.53
2018-04-15T20:25:21.432Z,4.13
2018-04-15T20:27:50.093Z,3.40
2018-04-15T20:30:18.321Z,3.30
2018-04-15T20:32:46.526Z,3.53
2018-04-15T20:35:15.145Z,3.60
2018-04-15T20:37:43.391Z,3.60
2018-04-15T20:40:11.577Z,4.17
2018-04-15T20:42:40.211Z,4.27
2018-04-15T20:45:08.424Z,4.73
2018-04-15T20:47:36.638Z,4.53
2018-04-15T20:50:05.329Z,4.30
2018-04-15T20:52:33.574Z,4.80
2018-04-15T20:55:01.782Z,5.10
2018-04-15T20:57:30.398Z,4.40
2018-04-15T20:59:58.663Z,4.60
2018-04-15T21:02:26.860Z,4.30
2018-04-15T21:04:55.391Z,4.00
2018-04-15T21:07:23.616Z,3.80
2018-04-15T21:09:51.839Z,4.43
2018-04-15T21:12:20.583Z,4.93
2018-04-15T21:14:48.815Z,4.67
2018-04-15T21:17:17.000Z,4.80
2018-04-15T21:19:45.727Z,5.53
2018-04-15T21:22:13.923Z,6.77
2018-04-15T21:24:42.137Z,6.73
2018-04-15T21:27:10.917Z,6.60
2018-04-15T21:29:39.752Z,7.03
2018-04-15T21:32:07.947Z,6.60
2018-04-15T21:34:36.174Z,6.33
2018-04-15T21:37:04.906Z,6.50
2018-04-15T21:39:33.093Z,6.70
2018-04-15T21:42:01.310Z,6.53
2018-04-15T21:44:30.040Z,6.17
2018-04-15T21:46:58.218Z,5.87
2018-04-15T21:49:26.433Z,7.23
2018-04-15T21:51:55.116Z,6.60
2018-04-15T21:54:23.331Z,6.33
2018-04-15T21:56:51.525Z,7.30
2018-04-15T21:59:20.325Z,7.03
2018-04-15T22:01:48.510Z,6.20
2018-04-15T22:04:16.715Z,5.57
2018-04-15T22:06:45.421Z,5.40
2018-04-15T22:09:13.619Z,6.13
2018-04-15T22:11:53.696Z,5.47
2018-04-15T22:14:22.267Z,5.90
2018-04-15T22:16:50.572Z,5.87
2018-04-15T22:19:18.751Z,5.57
2018-04-15T22:21:46.951Z,5.53
2018-04-15T22:24:15.723Z,6.30
2018-04-15T22:26:43.923Z,6.50
2018-04-15T22:29:12.115Z,6.03
2018-04-15T22:31:40.737Z,6.07
2018-04-15T22:34:09.061Z,5.73
2018-04-15T22:36:37.268Z,5.73
2018-04-15T22:39:05.913Z,5.43
2018-04-15T22:41:34.100Z,5.47
2018-04-15T22:44:02.321Z,5.50
2018-04-15T22:46:30.960Z,5.60
2018-04-15T22:48:59.158Z,5.97
2018-04-15T22:51:27.344Z,5.90
2018-04-15T22:53:56.101Z,5.90
2018-04-15T22:56:24.317Z,5.63
2018-04-15T22:58:53.088Z,5.53
2018-04-15T23:01:21.707Z,5.33
2018-04-15T23:03:49.935Z,5.50
2018-04-15T23:06:18.175Z,5.27
2018-04-15T23:08:46.847Z,8.17
2018-04-15T23:11:15.045Z,5.77
2018-04-15T23:13:43.224Z,5.70
2018-04-15T23:16:11.731Z,5.40
2018-04-15T23:18:39.936Z,5.70
2018-04-15T23:21:08.407Z,5.73
2018-04-15T23:23:37.116Z,5.73
2018-04-15T23:26:05.589Z,6.30
2018-04-15T23:28:33.868Z,5.73
2018-04-15T23:31:02.554Z,5.40
2018-04-15T23:33:30.777Z,5.47
2018-04-15T23:35:58.955Z,5.37
2018-04-15T23:38:27.473Z,6.20
2018-04-15T23:40:55.699Z,5.77
2018-04-15T23:43:23.901Z,5.83
2018-04-15T23:45:53.112Z,5.37
2018-04-15T23:48:21.739Z,5.43
2018-04-15T23:50:49.953Z,5.63
2018-04-15T23:53:18.155Z,5.37
2018-04-15T23:55:46.785Z,5.10
2018-04-15T23:58:15.428Z,5.67
